createdAt,value
2018-06-27T00:05:08.344Z,0
2018-06-27T00:15:08.344Z,0
2018-06-27T00:25:08.364Z,0
2018-06-27T00:35:08.397Z,0
2018-06-27T00:45:08.589Z,0
2018-06-27T00:55:08.271Z,0
2018-06-27T01:05:08.403Z,0
2018-06-27T01:15:08.293Z,0
2018-06-27T01:25:08.417Z,0
2018-06-27T01:35:08.372Z,0
2018-06-27T01:45:08.353Z,0
2018-06-27T01:55:08.326Z,0
2018-06-27T02:05:08.358Z,0
2018-06-27T02:15:08.404Z,0
2018-06-27T02:25:08.367Z,0
2018-06-27T02:35:08.291Z,0
2018-06-27T02:45:08.460Z,0
2018-06-27T02:55:08.344Z,0
2018-06-27T03:05:08.448Z,0
2018-06-27T03:15:08.405Z,5
2018-06-27T03:25:08.385Z,15
2018-06-27T03:35:08.416Z,20
2018-06-27T03:45:08.449Z,30
2018-06-27T03:55:08.417Z,40
2018-06-27T04:05:19.147Z,60
2018-06-27T04:15:08.711Z,65
2018-06-27T04:25:08.438Z,80
2018-06-27T04:35:08.456Z,90
2018-06-27T04:45:08.452Z,100
2018-06-27T04:55:08.497Z,110
2018-06-27T05:05:08.447Z,140
2018-06-27T05:15:08.567Z,165
2018-06-27T05:25:08.415Z,195
2018-06-27T05:35:08.643Z,145
2018-06-27T05:45:08.541Z,190
2018-06-27T05:55:08.635Z,245
2018-06-27T06:05:08.542Z,260
2018-06-27T06:15:08.584Z,270
2018-06-27T06:25:08.628Z,290
2018-06-27T06:35:08.545Z,305
2018-06-27T06:45:08.590Z,320
2018-06-27T06:55:08.556Z,340
2018-06-27T07:05:08.788Z,350
2018-06-27T07:15:08.610Z,365
2018-06-27T07:25:08.563Z,365
2018-06-27T07:35:08.677Z,370
2018-06-27T07:45:08.568Z,375
2018-06-27T07:55:08.635Z,280
2018-06-27T08:05:08.560Z,445
2018-06-27T08:15:08.514Z,455
2018-06-27T08:25:08.613Z,370
2018-06-27T08:35:08.536Z,395
2018-06-27T08:45:08.652Z,360
2018-06-27T08:55:08.597Z,350
2018-06-27T09:05:08.621Z,305
2018-06-27T09:15:08.708Z,185
2018-06-27T09:25:08.594Z,155
2018-06-27T09:35:08.838Z,155
2018-06-27T09:45:08.637Z,150
2018-06-27T09:55:08.582Z,150
2018-06-27T10:05:08.731Z,145
2018-06-27T10:15:08.642Z,145
2018-06-27T10:25:08.653Z,145
2018-06-27T10:35:08.607Z,145
2018-06-27T10:45:08.572Z,140
2018-06-27T10:55:08.669Z,140
2018-06-27T11:05:08.663Z,145
2018-06-27T11:15:08.863Z,155
2018-06-27T11:25:08.669Z,160
2018-06-27T11:35:08.734Z,150
2018-06-27T11:45:08.980Z,170
2018-06-27T11:55:08.786Z,160
2018-06-27T12:05:08.570Z,145
2018-06-27T12:15:09.009Z,175
2018-06-27T12:25:08.752Z,225
2018-06-27T12:35:08.991Z,150
2018-06-27T12:45:08.579Z,195
2018-06-27T12:55:08.805Z,165
2018-06-27T13:05:08.650Z,190
2018-06-27T13:15:09.087Z,195
2018-06-27T13:25:09.504Z,190
2018-06-27T13:35:08.685Z,160
2018-06-27T13:45:08.761Z,165
2018-06-27T13:55:08.724Z,140
2018-06-27T14:05:09.625Z,150
2018-06-27T14:15:09.166Z,160
2018-06-27T14:25:10.872Z,170
2018-06-27T14:35:11.980Z,225
2018-06-27T14:45:08.988Z,140
2018-06-27T14:55:08.958Z,160
2018-06-27T15:05:09.103Z,135
2018-06-27T15:15:09.123Z,150
2018-06-27T15:25:09.056Z,130
2018-06-27T15:35:30.591Z,120
2018-06-27T15:45:21.998Z,130
2018-06-27T15:55:20.657Z,160
2018-06-27T16:05:19.804Z,100
2018-06-27T16:25:08.752Z,120
2018-06-27T16:35:20.295Z,135
2018-06-27T16:45:08.815Z,100
2018-06-27T16:55:08.828Z,135
2018-06-27T17:05:09.691Z,135
2018-06-27T17:15:09.729Z,105
2018-06-27T17:25:10.548Z,70
2018-06-27T17:35:10.005Z,65
2018-06-27T17:45:09.057Z,55
2018-06-27T17:55:09.152Z,60
2018-06-27T18:05:08.894Z,60
2018-06-27T18:15:08.965Z,55
2018-06-27T18:25:08.996Z,50
2018-06-27T18:35:08.790Z,40
2018-06-27T18:45:08.848Z,45
2018-06-27T18:55:18.146Z,30
2018-06-27T19:05:09.554Z,30
2018-06-27T19:15:11.751Z,20
2018-06-27T19:25:08.933Z,15
2018-06-27T19:35:09.428Z,10
2018-06-27T19:45:10.121Z,5
2018-06-27T19:55:10.561Z,0
2018-06-27T20:05:09.167Z,0
2018-06-27T20:15:09.629Z,0
2018-06-27T20:25:12.039Z,0
2018-06-27T20:35:10.930Z,0
2018-06-27T20:45:09.904Z,0
2018-06-27T20:55:14.429Z,0
2018-06-27T21:05:09.505Z,0
2018-06-27T21:15:09.505Z,0
2018-06-27T21:25:15.236Z,0
2018-06-27T21:35:09.560Z,0
2018-06-27T21:45:09.255Z,0
2018-06-27T21:55:09.297Z,0
2018-06-27T22:05:09.201Z,0
2018-06-27T22:15:09.560Z,0
2018-06-27T22:25:09.531Z,0
2018-06-27T22:35:08.899Z,0
2018-06-27T22:45:08.825Z,0
2018-06-27T22:55:08.806Z,0
2018-06-27T23:05:08.749Z,0
2018-06-27T23:15:08.743Z,0
2018-06-27T23:25:08.823Z,0
2018-06-27T23:35:08.727Z,0
2018-06-27T23:45:09.358Z,0
2018-06-27T23:55:08.707Z,0
